Sunland, California
Current Conditions -  °F | °C
As of 4:53 PM on Saturday 20 Dec 2014 (Local Time) from KBUR Reporting Station
Clear Clear  
Wind Chill: 59°   Ceiling: Unl
Heat Index: 59°   Visibility: 10mi
Dew Point: 50°   Wind: 3mph
Humidity: 72%   Direction: 140°SE
Pressure: 30.12"   Gusts: NA
Location:  34.27°N, 118.3°W
Report Text: KBUR 210053Z 14003KT 10SM CLR 15/10 A3012 RMK AO2 SLP194 T01500100
Loading
Personal Weather Stations






























Interactive Weather Map New forecast layout! Learn more

10-Day Weather Forecast

Advertisements
Track Severe Weather on mobile